Time;durP1;ratioP1;P1;durP2;ratioP2;P2;SDS_P1;SDS_P2;PMS_P1;PMS_P2;Temp;Humidity;BMP_temperature;BMP_pressure;BME280_temperature;BME280_humidity;BME280_pressure;Samples;Min_cycle;Max_cycle;Signal;HPM_P1;HPM_P2
2024/02/04 00:00:01;;;;;;;0.70;0.70;;;15.00;72.30;;;;;;5000817;28;20042;-85
2024/02/04 00:02:27;;;;;;;0.70;0.70;;;15.00;72.20;;;;;;4987028;28;20053;-86
2024/02/04 00:04:52;;;;;;;0.90;0.90;;;14.90;72.20;;;;;;5004371;28;20575;-84
2024/02/04 00:07:18;;;;;;;0.82;0.82;;;15.00;72.40;;;;;;5001987;28;20459;-86
2024/02/04 00:09:46;;;;;;;0.70;0.70;;;15.00;72.20;;;;;;5005043;28;20034;-86
2024/02/04 00:12:12;;;;;;;0.57;0.55;;;14.90;72.40;;;;;;5019385;28;20038;-85
2024/02/04 00:14:37;;;;;;;0.63;0.63;;;14.90;72.20;;;;;;5002247;28;20459;-85
2024/02/04 00:17:03;;;;;;;0.68;0.68;;;14.90;72.20;;;;;;4986249;28;20070;-86
2024/02/04 00:19:29;;;;;;;0.80;0.80;;;14.90;72.10;;;;;;5000953;28;20053;-86
2024/02/04 00:21:54;;;;;;;0.70;0.70;;;15.00;72.10;;;;;;4985621;28;20054;-86
2024/02/04 00:24:20;;;;;;;0.60;0.60;;;14.90;72.10;;;;;;5020679;28;20209;-84
2024/02/04 00:26:46;;;;;;;0.75;0.75;;;14.90;72.20;;;;;;5003719;28;20034;-85
2024/02/04 00:29:11;;;;;;;0.70;0.70;;;14.90;72.20;;;;;;4988293;28;20480;-85
2024/02/04 00:31:37;;;;;;;0.80;0.80;;;14.90;72.20;;;;;;5004204;28;20041;-85
2024/02/04 00:34:03;;;;;;;0.90;0.85;;;15.00;72.30;;;;;;5005686;28;20081;-86
2024/02/04 00:36:28;;;;;;;0.80;0.70;;;14.90;72.10;;;;;;5018543;28;20050;-85
2024/02/04 00:38:54;;;;;;;0.80;0.70;;;14.90;72.10;;;;;;5004012;28;20038;-86
2024/02/04 00:41:19;;;;;;;0.70;0.70;;;15.00;72.10;;;;;;5004204;28;20145;-86
2024/02/04 00:43:46;;;;;;;0.60;0.60;;;14.90;72.20;;;;;;5004334;28;20062;-86
2024/02/04 00:46:12;;;;;;;0.60;0.60;;;14.90;72.10;;;;;;5006116;28;20084;-85
2024/02/04 00:48:37;;;;;;;0.90;0.80;;;14.90;72.10;;;;;;4989314;28;20061;-85
2024/02/04 00:51:03;;;;;;;0.57;0.57;;;14.90;72.10;;;;;;5020217;28;20133;-85
2024/02/04 00:53:33;;;;;;;0.82;0.82;;;14.90;72.10;;;;;;5004859;28;20038;-86
2024/02/04 00:56:02;;;;;;;0.75;0.75;;;14.90;72.20;;;;;;5003839;28;20162;-85
2024/02/04 00:58:28;;;;;;;0.73;0.73;;;14.90;72.20;;;;;;4989327;28;20061;-85
2024/02/04 01:00:54;;;;;;;0.77;0.77;;;14.90;72.20;;;;;;5003137;28;20136;-86
2024/02/04 01:03:19;;;;;;;0.68;0.68;;;14.90;72.10;;;;;;5008420;28;20049;-86
2024/02/04 01:05:45;;;;;;;0.80;0.80;;;14.90;72.30;;;;;;5010076;28;20158;-86
2024/02/04 01:08:10;;;;;;;0.70;0.70;;;14.90;72.10;;;;;;4999566;28;20496;-85
2024/02/04 01:10:36;;;;;;;0.60;0.60;;;14.90;72.10;;;;;;5006787;28;20048;-85
2024/02/04 01:13:01;;;;;;;0.70;0.70;;;14.90;72.10;;;;;;5018394;28;20065;-85
2024/02/04 01:15:27;;;;;;;0.60;0.60;;;14.90;72.20;;;;;;4990078;28;20069;-85
2024/02/04 01:17:52;;;;;;;0.80;0.80;;;14.90;72.10;;;;;;5001692;28;20065;-85
2024/02/04 01:20:18;;;;;;;0.68;0.68;;;14.90;72.10;;;;;;5021760;28;20045;-85
2024/02/04 01:22:44;;;;;;;0.93;0.93;;;14.90;72.20;;;;;;5006803;28;20120;-85
2024/02/04 01:25:09;;;;;;;0.93;0.88;;;14.90;72.10;;;;;;5007144;28;20037;-86
2024/02/04 01:27:35;;;;;;;0.90;0.90;;;14.90;72.10;;;;;;5001583;28;20088;-84
2024/02/04 01:30:00;;;;;;;0.70;0.70;;;14.90;72.20;;;;;;5001792;28;20069;-85
2024/02/04 01:32:26;;;;;;;0.50;0.50;;;14.90;72.20;;;;;;5019067;28;20038;-85
2024/02/04 01:34:51;;;;;;;0.63;0.63;;;14.90;72.10;;;;;;5004753;28;20133;-86
2024/02/04 01:37:18;;;;;;;0.75;0.75;;;14.90;72.10;;;;;;5007478;28;20507;-85
2024/02/04 01:39:43;;;;;;;0.80;0.80;;;14.90;72.10;;;;;;5002098;28;20098;-85
2024/02/04 01:42:09;;;;;;;0.98;0.90;;;14.90;72.10;;;;;;5003423;28;20086;-85
2024/02/04 01:44:35;;;;;;;0.80;0.80;;;14.90;72.20;;;;;;5019958;28;20068;-86
2024/02/04 01:47:01;;;;;;;0.77;0.77;;;14.90;72.20;;;;;;5005134;28;22092;-84
2024/02/04 01:49:27;;;;;;;0.73;0.73;;;14.90;72.20;;;;;;5005903;28;20129;-86
2024/02/04 01:51:53;;;;;;;0.80;0.70;;;14.80;72.10;;;;;;5002700;28;20033;-86
2024/02/04 01:54:19;;;;;;;0.70;0.70;;;14.90;72.20;;;;;;5018916;28;20116;-86
2024/02/04 01:56:46;;;;;;;0.80;0.80;;;14.90;72.10;;;;;;5016868;28;20056;-85
2024/02/04 01:59:13;;;;;;;0.55;0.55;;;14.90;72.10;;;;;;4971228;28;20049;-85
2024/02/04 02:01:38;;;;;;;1.13;1.13;;;14.90;72.10;;;;;;5019279;28;20056;-85
2024/02/04 02:04:05;;;;;;;0.70;0.70;;;14.90;72.10;;;;;;5018578;28;20041;-85
2024/02/04 02:06:30;;;;;;;1.80;1.10;;;14.90;72.10;;;;;;5016187;28;20136;-85
2024/02/04 02:08:56;;;;;;;0.60;0.60;;;14.90;72.10;;;;;;4972937;28;20136;-85
2024/02/04 02:11:37;;;;;;;0.70;0.70;;;14.90;72.80;;;;;;4989325;28;20045;-85
2024/02/04 02:14:03;;;;;;;0.70;0.70;;;14.90;72.00;;;;;;4986882;28;20058;-86
2024/02/04 02:16:30;;;;;;;0.80;0.80;;;14.90;72.20;;;;;;4988406;28;20073;-85
2024/02/04 02:19:03;;;;;;;0.68;0.68;;;14.90;72.20;;;;;;5002417;28;20121;-85
2024/02/04 02:21:47;;;;;;;0.73;0.73;;;14.90;72.00;;;;;;5013978;28;20104;-86
2024/02/04 02:24:33;;;;;;;0.60;0.60;;;14.90;72.00;;;;;;5002730;28;20593;-85
2024/02/04 02:26:59;;;;;;;1.40;1.30;;;14.90;72.80;;;;;;5028953;28;20579;-86
2024/02/04 02:29:25;;;;;;;3.20;2.88;;;14.90;72.00;;;;;;5013785;28;20077;-86
2024/02/04 02:31:50;;;;;;;2.47;2.28;;;14.90;72.00;;;;;;5001295;28;20046;-85
2024/02/04 02:34:16;;;;;;;1.38;1.27;;;14.90;72.00;;;;;;4999681;28;20065;-86
2024/02/04 02:36:45;;;;;;;1.50;1.40;;;14.90;72.00;;;;;;5013597;28;20498;-86
2024/02/04 02:39:32;;;;;;;1.30;1.05;;;14.90;72.00;;;;;;4999452;28;20050;-86
2024/02/04 02:41:59;;;;;;;1.10;1.10;;;14.90;72.10;;;;;;4998105;28;20423;-86
2024/02/04 02:44:25;;;;;;;1.73;1.63;;;14.80;72.00;;;;;;5016984;28;20541;-85
2024/02/04 02:46:50;;;;;;;1.67;1.58;;;14.80;72.00;;;;;;5018694;28;20042;-85
2024/02/04 02:49:16;;;;;;;1.50;1.40;;;14.90;72.10;;;;;;5003587;28;20053;-85
2024/02/04 02:51:42;;;;;;;1.73;1.30;;;14.80;72.10;;;;;;5016851;28;20042;-84
2024/02/04 02:54:07;;;;;;;1.40;1.30;;;14.90;72.20;;;;;;5018625;28;20160;-86
2024/02/04 02:56:33;;;;;;;1.45;1.35;;;14.90;72.10;;;;;;5018341;28;20038;-86
2024/02/04 02:58:58;;;;;;;1.65;1.45;;;14.90;72.00;;;;;;5016569;28;20038;-86
2024/02/04 03:01:24;;;;;;;1.58;1.48;;;14.80;71.90;;;;;;5001828;28;20042;-85
2024/02/04 03:03:50;;;;;;;1.70;1.60;;;14.90;72.10;;;;;;4998934;28;20054;-85
2024/02/04 03:06:15;;;;;;;1.60;1.50;;;14.90;72.00;;;;;;5001564;28;20049;-86
2024/02/04 03:08:41;;;;;;;1.50;1.40;;;14.90;72.00;;;;;;5003340;28;20072;-85
2024/02/04 03:11:06;;;;;;;1.58;1.48;;;14.80;71.90;;;;;;5002926;28;20278;-85
2024/02/04 03:13:32;;;;;;;1.50;1.40;;;14.90;72.00;;;;;;5006186;28;20428;-86
2024/02/04 03:15:57;;;;;;;1.13;1.13;;;14.90;72.80;;;;;;5002808;28;21195;-86
2024/02/04 03:18:23;;;;;;;1.80;1.40;;;14.90;72.60;;;;;;5000489;28;20046;-85
2024/02/04 03:20:48;;;;;;;1.50;1.40;;;14.80;72.10;;;;;;5017984;28;20180;-85
2024/02/04 03:23:14;;;;;;;1.40;1.30;;;14.90;72.10;;;;;;5004080;28;20074;-86
2024/02/04 03:25:39;;;;;;;2.03;1.55;;;14.80;71.90;;;;;;5004347;28;20508;-86
2024/02/04 03:28:05;;;;;;;1.83;1.60;;;14.80;72.00;;;;;;5004005;28;20530;-86
2024/02/04 03:30:31;;;;;;;1.50;1.40;;;14.80;72.00;;;;;;5005119;28;20112;-86
2024/02/04 03:32:56;;;;;;;1.40;1.30;;;14.90;72.10;;;;;;4997531;28;20044;-86
2024/02/04 03:35:22;;;;;;;1.25;1.10;;;14.80;72.00;;;;;;4997834;28;20048;-85
2024/02/04 03:37:47;;;;;;;1.52;1.42;;;14.90;72.10;;;;;;5003480;28;20030;-86
2024/02/04 03:40:13;;;;;;;1.55;1.45;;;14.80;71.90;;;;;;4995756;28;20050;-85
2024/02/04 03:42:40;;;;;;;1.52;1.40;;;14.80;72.00;;;;;;5015158;28;20081;-85
2024/02/04 03:45:06;;;;;;;1.60;1.50;;;14.80;72.00;;;;;;4997514;28;20049;-86
2024/02/04 03:47:31;;;;;;;1.45;1.35;;;14.80;71.90;;;;;;5005154;28;20053;-85
2024/02/04 03:49:57;;;;;;;1.60;1.50;;;14.90;72.10;;;;;;4985291;28;20042;-86
2024/02/04 03:52:22;;;;;;;2.28;1.30;;;14.80;72.00;;;;;;5000422;28;20039;-86
2024/02/04 03:54:48;;;;;;;1.40;1.30;;;14.80;71.80;;;;;;5011131;28;20144;-85
2024/02/04 03:57:13;;;;;;;1.50;1.40;;;14.80;71.80;;;;;;4997755;28;20062;-85
2024/02/04 03:59:39;;;;;;;1.40;1.30;;;14.80;72.00;;;;;;5006451;28;20084;-85
2024/02/04 04:02:05;;;;;;;1.70;1.60;;;14.80;71.90;;;;;;4987840;28;20112;-85
2024/02/04 04:04:30;;;;;;;1.35;1.25;;;14.80;71.90;;;;;;5005785;28;20073;-85
2024/02/04 04:06:56;;;;;;;1.42;1.23;;;14.80;71.70;;;;;;5006122;28;20049;-86
2024/02/04 04:09:21;;;;;;;1.63;1.52;;;14.80;71.80;;;;;;5006430;28;20053;-86
2024/02/04 04:11:47;;;;;;;1.40;1.30;;;14.80;71.80;;;;;;5007119;28;20608;-86
2024/02/04 04:14:12;;;;;;;1.45;1.35;;;14.80;71.70;;;;;;5002268;28;20046;-86
2024/02/04 04:16:38;;;;;;;1.38;1.27;;;14.80;71.70;;;;;;5007901;28;20037;-85
2024/02/04 04:19:03;;;;;;;1.60;1.48;;;14.80;71.70;;;;;;4987861;28;20040;-85
2024/02/04 04:21:29;;;;;;;1.63;1.52;;;14.80;71.70;;;;;;5018802;28;20053;-85
2024/02/04 04:23:54;;;;;;;1.35;1.13;;;14.80;71.80;;;;;;5001977;28;20559;-85
2024/02/04 04:26:20;;;;;;;1.30;1.20;;;14.80;71.70;;;;;;5006622;28;20922;-85
2024/02/04 04:28:45;;;;;;;1.25;1.15;;;14.80;72.10;;;;;;5002393;28;20044;-85
2024/02/04 04:31:11;;;;;;;1.27;1.17;;;14.80;71.80;;;;;;5003137;28;20133;-85
2024/02/04 04:33:37;;;;;;;1.40;1.30;;;14.80;71.70;;;;;;5021165;28;20128;-85
2024/02/04 04:36:02;;;;;;;1.20;1.15;;;14.80;71.80;;;;;;5001970;28;20092;-85
2024/02/04 04:38:28;;;;;;;1.20;1.10;;;14.80;71.90;;;;;;5003866;28;20053;-85
2024/02/04 04:40:53;;;;;;;1.30;1.20;;;14.80;71.70;;;;;;5003554;28;20038;-86
2024/02/04 04:43:19;;;;;;;1.58;1.48;;;14.80;71.70;;;;;;5002333;28;20080;-84
2024/02/04 04:45:45;;;;;;;1.45;1.35;;;14.80;71.60;;;;;;5004237;28;20547;-86
2024/02/04 04:48:10;;;;;;;0.90;0.90;;;14.80;71.70;;;;;;5004427;28;20479;-85
2024/02/04 04:50:36;;;;;;;1.25;1.15;;;14.80;71.60;;;;;;5021018;28;20068;-86
2024/02/04 04:53:02;;;;;;;1.25;1.15;;;14.80;71.70;;;;;;5002618;28;20432;-86
2024/02/04 04:55:27;;;;;;;1.08;0.93;;;14.80;71.70;;;;;;5023533;28;20033;-86
2024/02/04 04:57:53;;;;;;;1.50;1.20;;;14.80;72.50;;;;;;5016471;28;20124;-86
2024/02/04 05:00:19;;;;;;;1.25;1.15;;;14.80;71.70;;;;;;5019073;28;20045;-86
2024/02/04 05:02:45;;;;;;;0.93;0.93;;;14.80;72.00;;;;;;5003446;28;20045;-85
2024/02/04 05:05:14;;;;;;;1.10;1.10;;;14.80;71.70;;;;;;5002416;28;20042;-85
2024/02/04 05:07:39;;;;;;;1.30;1.17;;;14.80;71.60;;;;;;5004310;28;20053;-85
2024/02/04 05:10:05;;;;;;;1.13;1.02;;;14.80;71.90;;;;;;5003341;28;20034;-86
2024/02/04 05:12:32;;;;;;;1.38;1.27;;;14.80;71.80;;;;;;5005191;28;20128;-85
2024/02/04 05:14:58;;;;;;;1.10;1.00;;;14.80;71.70;;;;;;5018620;28;20515;-86
2024/02/04 05:17:23;;;;;;;1.20;1.10;;;14.80;71.80;;;;;;5015909;28;20042;-86
2024/02/04 05:19:49;;;;;;;1.20;1.10;;;14.80;71.60;;;;;;5003077;28;20034;-85
2024/02/04 05:22:14;;;;;;;1.20;1.10;;;14.80;71.70;;;;;;5006363;28;20077;-85
2024/02/04 05:24:41;;;;;;;1.10;1.00;;;14.80;71.80;;;;;;5021578;28;20038;-85
2024/02/04 05:27:06;;;;;;;1.20;1.10;;;14.80;71.70;;;;;;5005483;28;20594;-85
2024/02/04 05:29:32;;;;;;;1.08;0.98;;;14.80;71.70;;;;;;5019099;28;20042;-86
2024/02/04 05:31:58;;;;;;;1.00;1.00;;;14.80;71.60;;;;;;5017961;28;20051;-86
2024/02/04 05:34:24;;;;;;;1.00;1.00;;;14.80;71.70;;;;;;5005644;28;20108;-86
2024/02/04 05:36:49;;;;;;;1.02;0.75;;;14.80;71.70;;;;;;5018624;28;20042;-85
2024/02/04 05:39:16;;;;;;;1.30;1.20;;;14.80;71.70;;;;;;5006284;28;22303;-85
2024/02/04 05:41:42;;;;;;;1.02;1.00;;;14.80;71.60;;;;;;5007116;28;20084;-85
2024/02/04 05:44:10;;;;;;;1.08;0.98;;;14.80;71.60;;;;;;5004225;28;20058;-85
2024/02/04 05:46:36;;;;;;;1.00;1.00;;;14.80;71.60;;;;;;4991561;28;20034;-86
2024/02/04 05:49:02;;;;;;;1.20;1.10;;;14.80;71.70;;;;;;5002988;28;20038;-86
2024/02/04 05:51:27;;;;;;;1.42;1.20;;;14.80;71.60;;;;;;5003890;28;20038;-86
2024/02/04 05:53:53;;;;;;;1.92;1.10;;;14.80;71.60;;;;;;5001040;28;20397;-85
2024/02/04 05:56:20;;;;;;;1.08;1.05;;;14.80;71.60;;;;;;5001700;28;20053;-86
2024/02/04 05:58:46;;;;;;;1.08;0.90;;;14.80;71.70;;;;;;5021931;28;20045;-85
2024/02/04 06:01:11;;;;;;;1.25;0.95;;;14.80;71.60;;;;;;5003715;28;20077;-85
2024/02/04 06:03:37;;;;;;;1.20;1.10;;;14.80;71.50;;;;;;5017446;28;20038;-86
2024/02/04 06:06:02;;;;;;;1.08;0.98;;;14.80;71.50;;;;;;5000396;28;20042;-86
2024/02/04 06:08:28;;;;;;;1.00;1.00;;;14.80;71.50;;;;;;4999470;28;20047;-86
2024/02/04 06:10:53;;;;;;;1.88;1.20;;;14.80;71.60;;;;;;4998210;28;20611;-86
2024/02/04 06:13:19;;;;;;;1.20;1.10;;;14.80;71.60;;;;;;4990442;28;20034;-85
2024/02/04 06:15:44;;;;;;;1.25;1.02;;;14.80;71.60;;;;;;5003894;28;20100;-86
2024/02/04 06:18:10;;;;;;;0.85;0.82;;;14.80;71.60;;;;;;5016707;28;20049;-85
2024/02/04 06:20:36;;;;;;;1.17;1.08;;;14.70;71.50;;;;;;5001330;28;20045;-86
2024/02/04 06:23:01;;;;;;;1.25;1.10;;;14.80;71.60;;;;;;5015721;28;20050;-86
2024/02/04 06:25:27;;;;;;;1.10;1.00;;;14.80;72.30;;;;;;5003504;28;20103;-86
2024/02/04 06:27:53;;;;;;;0.90;0.90;;;14.80;71.70;;;;;;5017987;28;20057;-86
2024/02/04 06:30:18;;;;;;;2.13;0.93;;;14.80;71.60;;;;;;5000852;28;20041;-85
2024/02/04 06:32:44;;;;;;;1.17;1.08;;;14.80;71.60;;;;;;5000672;28;20562;-85
2024/02/04 06:35:09;;;;;;;1.10;0.85;;;14.80;71.50;;;;;;5003555;28;20498;-85
2024/02/04 06:37:35;;;;;;;1.05;0.98;;;14.80;71.60;;;;;;5003752;28;20053;-83
2024/02/04 06:40:00;;;;;;;1.00;0.90;;;14.80;71.50;;;;;;5001324;28;20537;-83
2024/02/04 06:42:26;;;;;;;1.00;1.00;;;14.80;71.60;;;;;;5003026;28;20475;-84
2024/02/04 06:44:51;;;;;;;1.52;1.42;;;14.80;71.60;;;;;;5002883;28;20065;-83
2024/02/04 06:47:17;;;;;;;1.92;1.10;;;14.80;71.60;;;;;;5004945;28;20050;-84
2024/02/04 06:49:45;;;;;;;1.10;1.00;;;14.80;71.60;;;;;;5006666;28;20057;-83
2024/02/04 06:52:11;;;;;;;1.00;0.90;;;14.80;71.50;;;;;;5001634;28;20126;-83
2024/02/04 06:54:37;;;;;;;0.93;0.80;;;14.80;71.60;;;;;;5003504;28;20506;-83
2024/02/04 06:57:02;;;;;;;1.00;0.73;;;14.80;71.50;;;;;;5001691;28;20551;-83
2024/02/04 06:59:28;;;;;;;0.80;0.80;;;14.80;71.60;;;;;;5001176;28;20404;-83
2024/02/04 07:01:54;;;;;;;1.20;0.80;;;14.80;71.60;;;;;;4997093;28;20405;-82
2024/02/04 07:04:21;;;;;;;0.80;0.80;;;14.80;71.70;;;;;;5005637;28;20523;-83
2024/02/04 07:06:47;;;;;;;0.70;0.70;;;14.80;71.60;;;;;;5017586;28;20456;-84
2024/02/04 07:09:13;;;;;;;1.67;0.85;;;14.80;71.50;;;;;;5005064;28;20249;-83
2024/02/04 07:11:38;;;;;;;1.35;0.90;;;14.80;71.40;;;;;;5001915;28;20467;-84
2024/02/04 07:14:05;;;;;;;0.80;0.80;;;14.70;71.40;;;;;;5003365;28;20050;-83
2024/02/04 07:16:31;;;;;;;1.55;0.88;;;14.80;71.40;;;;;;5020045;28;20327;-83
2024/02/04 07:18:57;;;;;;;0.70;0.70;;;14.80;71.40;;;;;;5018098;28;20570;-83
2024/02/04 07:21:22;;;;;;;0.90;0.80;;;14.70;71.30;;;;;;5017095;28;20736;-84
2024/02/04 07:23:48;;;;;;;1.33;0.90;;;14.80;71.40;;;;;;5017164;28;20049;-83
2024/02/04 07:26:13;;;;;;;1.05;0.82;;;14.80;71.40;;;;;;4998611;28;20066;-83
2024/02/04 07:28:39;;;;;;;0.90;0.90;;;14.80;71.40;;;;;;4989060;28;20512;-83
2024/02/04 07:31:04;;;;;;;0.93;0.80;;;14.70;71.50;;;;;;5015226;28;20100;-83
2024/02/04 07:33:30;;;;;;;0.70;0.70;;;14.70;71.70;;;;;;4989221;28;20044;-83
2024/02/04 07:35:55;;;;;;;0.60;0.60;;;14.70;71.50;;;;;;5004490;28;20042;-83
2024/02/04 07:38:21;;;;;;;1.02;0.70;;;14.70;71.40;;;;;;4999868;28;20038;-84
2024/02/04 07:40:46;;;;;;;1.65;1.10;;;14.70;71.40;;;;;;5002844;28;20069;-83
2024/02/04 07:43:14;;;;;;;0.80;0.80;;;14.70;71.40;;;;;;5004147;28;20073;-84
2024/02/04 07:45:39;;;;;;;1.15;0.75;;;14.70;71.60;;;;;;5017982;28;20135;-83
2024/02/04 07:48:06;;;;;;;0.75;0.75;;;14.70;71.30;;;;;;5001633;28;20049;-83
2024/02/04 07:50:32;;;;;;;0.73;0.55;;;14.70;71.30;;;;;;4998899;28;20042;-84
2024/02/04 07:52:57;;;;;;;0.85;0.80;;;14.70;71.30;;;;;;4983970;28;20041;-82
2024/02/04 07:55:23;;;;;;;1.65;0.95;;;14.70;71.40;;;;;;5015610;28;20061;-83
2024/02/04 07:57:49;;;;;;;0.90;0.88;;;14.70;71.40;;;;;;4997299;28;20065;-83
2024/02/04 08:00:14;;;;;;;0.93;0.80;;;14.70;71.40;;;;;;5003711;28;20094;-83
2024/02/04 08:02:40;;;;;;;1.08;0.65;;;14.70;71.30;;;;;;5016401;28;20026;-83
2024/02/04 08:05:06;;;;;;;1.75;0.93;;;14.70;71.40;;;;;;5029371;28;20042;-83
2024/02/04 08:07:32;;;;;;;1.67;0.63;;;14.70;71.40;;;;;;5004404;28;20504;-84
2024/02/04 08:09:57;;;;;;;0.68;0.60;;;14.70;71.60;;;;;;5004080;28;20034;-84
2024/02/04 08:12:23;;;;;;;0.60;0.60;;;14.70;71.40;;;;;;5003822;28;20396;-84
2024/02/04 08:14:48;;;;;;;1.02;0.70;;;14.70;71.40;;;;;;5004782;28;20042;-83
2024/02/04 08:17:14;;;;;;;0.82;0.75;;;14.70;71.30;;;;;;5004260;28;20058;-83
2024/02/04 08:19:40;;;;;;;1.45;0.77;;;14.70;71.30;;;;;;4973584;28;20100;-83
2024/02/04 08:22:05;;;;;;;0.93;0.65;;;14.70;71.50;;;;;;5016334;28;20053;-83
2024/02/04 08:24:32;;;;;;;0.60;0.60;;;14.70;71.40;;;;;;5019284;28;20041;-83
2024/02/04 08:26:58;;;;;;;1.38;0.80;;;14.70;71.30;;;;;;5015149;28;20527;-83
2024/02/04 08:29:24;;;;;;;1.10;0.80;;;14.70;71.30;;;;;;4997873;28;20082;-83
2024/02/04 08:31:51;;;;;;;0.82;0.82;;;14.70;71.30;;;;;;4996364;28;20100;-83
2024/02/04 08:34:17;;;;;;;0.52;0.52;;;14.70;71.40;;;;;;4990052;28;20522;-83
2024/02/04 08:36:42;;;;;;;0.85;0.70;;;14.80;71.30;;;;;;5001103;28;20025;-83
2024/02/04 08:39:09;;;;;;;0.80;0.80;;;14.80;71.30;;;;;;5018979;28;20471;-83
2024/02/04 08:41:34;;;;;;;3.53;1.02;;;14.70;71.30;;;;;;5002817;28;20046;-83
2024/02/04 08:44:00;;;;;;;0.70;0.60;;;14.70;71.40;;;;;;5019130;28;20165;-83
2024/02/04 08:46:26;;;;;;;0.85;0.70;;;14.70;71.30;;;;;;5013521;28;20096;-83
2024/02/04 08:48:51;;;;;;;0.75;0.57;;;14.70;71.40;;;;;;5008305;28;20507;-83
2024/02/04 08:51:18;;;;;;;0.95;0.85;;;14.70;71.60;;;;;;5020660;28;20507;-83
2024/02/04 08:53:43;;;;;;;1.00;0.77;;;14.70;71.30;;;;;;5018725;28;20037;-83
2024/02/04 08:56:09;;;;;;;1.65;0.68;;;14.70;71.30;;;;;;5019575;28;20034;-83
2024/02/04 08:58:36;;;;;;;0.90;0.70;;;14.70;71.30;;;;;;5007675;28;20080;-83
2024/02/04 09:01:03;;;;;;;0.70;0.60;;;14.70;71.30;;;;;;5005057;28;20042;-82
2024/02/04 09:03:29;;;;;;;1.10;0.73;;;14.70;71.30;;;;;;5003664;28;20129;-83
2024/02/04 09:05:55;;;;;;;0.60;0.60;;;14.70;72.10;;;;;;5007461;28;20031;-83
2024/02/04 09:08:20;;;;;;;1.40;1.02;;;14.70;71.50;;;;;;5005180;28;20042;-84
2024/02/04 09:10:46;;;;;;;1.27;1.00;;;14.70;71.20;;;;;;5009117;28;20045;-83
2024/02/04 09:13:11;;;;;;;0.60;0.60;;;14.70;71.30;;;;;;5007616;28;20068;-84
2024/02/04 09:15:37;;;;;;;1.13;0.85;;;14.70;71.20;;;;;;5007234;28;20515;-84
2024/02/04 09:18:03;;;;;;;1.13;0.65;;;14.70;71.60;;;;;;5020913;28;20447;-83
2024/02/04 09:20:28;;;;;;;0.75;0.60;;;14.70;71.20;;;;;;5002480;28;20050;-83
2024/02/04 09:22:54;;;;;;;0.75;0.75;;;14.80;71.30;;;;;;4999791;28;20122;-83
2024/02/04 09:25:19;;;;;;;1.10;0.80;;;14.70;71.30;;;;;;5004593;28;20045;-83
2024/02/04 09:27:45;;;;;;;1.30;0.82;;;14.70;72.00;;;;;;5016169;28;20026;-83
2024/02/04 09:30:11;;;;;;;0.70;0.52;;;14.70;71.20;;;;;;5016993;28;20057;-83
2024/02/04 09:32:37;;;;;;;1.00;0.60;;;14.70;71.20;;;;;;5016775;28;20061;-83
2024/02/04 09:35:03;;;;;;;0.60;0.50;;;14.70;71.30;;;;;;5017179;28;20105;-80
2024/02/04 09:37:29;;;;;;;0.60;0.60;;;14.70;71.30;;;;;;5014455;28;20038;-83
2024/02/04 09:39:54;;;;;;;2.60;0.75;;;14.80;71.30;;;;;;5007158;28;20046;-83
2024/02/04 09:42:21;;;;;;;0.90;0.70;;;14.80;71.30;;;;;;4974526;28;20042;-83
2024/02/04 09:44:50;;;;;;;0.70;0.65;;;14.80;71.40;;;;;;5006368;28;20041;-83
2024/02/04 09:47:16;;;;;;;0.57;0.57;;;14.80;71.30;;;;;;4990035;28;20065;-83
2024/02/04 09:49:45;;;;;;;0.65;0.60;;;14.80;71.70;;;;;;4992892;28;20460;-84
2024/02/04 09:52:10;;;;;;;1.27;0.52;;;14.80;71.20;;;;;;5006136;28;20092;-83
2024/02/04 09:54:43;;;;;;;1.33;1.10;;;14.80;71.10;;;;;;5014361;28;20046;-83
2024/02/04 09:57:08;;;;;;;1.02;0.85;;;14.70;71.30;;;;;;5007107;28;20038;-83
2024/02/04 09:59:35;;;;;;;0.60;0.60;;;14.80;71.10;;;;;;4991307;28;20053;-83
2024/02/04 10:02:01;;;;;;;0.50;0.50;;;14.80;71.10;;;;;;5002467;28;20542;-83
2024/02/04 10:04:26;;;;;;;0.60;0.60;;;14.70;71.00;;;;;;4995408;28;20053;-83
2024/02/04 10:06:52;;;;;;;1.23;0.70;;;14.80;71.10;;;;;;5014917;28;20049;-83
2024/02/04 10:09:18;;;;;;;0.98;0.98;;;14.80;71.10;;;;;;4986001;28;20038;-83
2024/02/04 10:11:43;;;;;;;1.08;0.65;;;14.80;71.20;;;;;;5007630;28;20774;-83
2024/02/04 10:14:09;;;;;;;1.25;0.57;;;14.80;71.00;;;;;;5020888;28;20089;-83
2024/02/04 10:16:37;;;;;;;0.60;0.60;;;14.70;71.00;;;;;;5004994;28;20108;-83
2024/02/04 10:19:03;;;;;;;0.60;0.50;;;14.80;71.10;;;;;;5017465;28;20061;-83
2024/02/04 10:21:28;;;;;;;0.82;0.63;;;14.70;71.00;;;;;;5000959;28;20085;-83
2024/02/04 10:23:55;;;;;;;0.50;0.50;;;14.80;71.30;;;;;;4995774;28;20050;-83
2024/02/04 10:26:21;;;;;;;2.00;0.60;;;14.80;71.10;;;;;;5000329;28;20070;-83
2024/02/04 10:28:47;;;;;;;0.57;0.55;;;14.80;71.20;;;;;;4987197;28;20542;-83
2024/02/04 10:31:13;;;;;;;0.65;0.60;;;14.70;71.20;;;;;;5002921;28;20132;-83
2024/02/04 10:33:38;;;;;;;1.75;0.60;;;14.80;70.90;;;;;;5001206;28;20125;-83
2024/02/04 10:36:04;;;;;;;0.85;0.50;;;14.80;71.10;;;;;;5017238;28;20052;-83
2024/02/04 10:38:31;;;;;;;1.40;0.60;;;14.70;71.00;;;;;;5004609;28;20092;-83
2024/02/04 10:40:58;;;;;;;0.75;0.30;;;14.80;71.40;;;;;;5004508;28;20054;-83
2024/02/04 10:43:24;;;;;;;0.68;0.47;;;14.80;71.10;;;;;;5003378;28;20092;-83
2024/02/04 10:45:51;;;;;;;1.77;0.82;;;14.80;71.30;;;;;;5020129;28;20431;-83
2024/02/04 10:48:19;;;;;;;1.10;0.88;;;14.80;71.00;;;;;;5019202;28;20518;-83
2024/02/04 10:50:46;;;;;;;0.70;0.50;;;14.80;71.00;;;;;;5018181;28;20046;-83
2024/02/04 10:53:12;;;;;;;1.58;0.70;;;14.80;71.30;;;;;;5003396;28;20124;-83
2024/02/04 10:55:40;;;;;;;0.70;0.65;;;14.80;71.40;;;;;;5019721;28;20456;-83
2024/02/04 10:58:06;;;;;;;0.70;0.68;;;14.80;70.90;;;;;;5002339;28;20038;-83
2024/02/04 11:00:32;;;;;;;1.73;0.70;;;14.80;71.20;;;;;;5020337;28;20030;-83
2024/02/04 11:02:58;;;;;;;0.70;0.70;;;14.80;71.40;;;;;;5019033;28;20507;-83
2024/02/04 11:05:25;;;;;;;0.63;0.60;;;14.80;71.10;;;;;;4968529;28;20041;-82
2024/02/04 11:07:50;;;;;;;1.55;0.52;;;14.80;71.20;;;;;;5019376;28;20053;-83
2024/02/04 11:10:16;;;;;;;0.95;0.50;;;14.80;71.20;;;;;;4989441;28;20034;-83
2024/02/04 11:12:42;;;;;;;1.30;0.73;;;14.80;71.00;;;;;;5020055;28;20046;-83
2024/02/04 11:15:09;;;;;;;1.98;0.60;;;14.80;71.00;;;;;;5018279;28;20060;-83
2024/02/04 11:17:49;;;;;;;1.35;0.80;;;14.80;71.00;;;;;;5005197;28;20512;-83
2024/02/04 11:20:37;;;;;;;1.13;0.70;;;14.80;71.00;;;;;;5012787;28;20471;-82
2024/02/04 11:23:15;;;;;;;0.77;0.60;;;14.80;70.80;;;;;;5003541;28;20061;-83
2024/02/04 11:25:52;;;;;;;1.13;0.65;;;14.80;70.80;;;;;;5003182;28;20046;-83
2024/02/04 11:28:19;;;;;;;0.80;0.70;;;14.80;70.90;;;;;;4984041;28;20050;-83
2024/02/04 11:30:45;;;;;;;0.93;0.73;;;14.80;70.90;;;;;;4999074;28;20081;-83
2024/02/04 11:33:12;;;;;;;1.48;0.77;;;14.80;71.10;;;;;;5017077;28;20107;-83
2024/02/04 11:35:37;;;;;;;1.65;0.90;;;14.80;71.00;;;;;;4984687;28;20042;-83
2024/02/04 11:38:03;;;;;;;0.90;0.80;;;14.80;70.90;;;;;;5016575;28;20057;-83
2024/02/04 11:40:36;;;;;;;1.27;0.82;;;14.80;71.20;;;;;;5001074;28;20042;-83
2024/02/04 11:43:11;;;;;;;0.82;0.50;;;14.80;70.90;;;;;;5017742;28;20038;-83
2024/02/04 11:45:40;;;;;;;0.60;0.60;;;14.80;70.60;;;;;;5002315;28;20038;-83
2024/02/04 11:48:12;;;;;;;0.40;0.40;;;14.80;71.10;;;;;;5005131;28;20483;-83
2024/02/04 11:50:38;;;;;;;0.88;0.80;;;14.80;70.70;;;;;;4996908;28;20037;-83
2024/02/04 11:53:11;;;;;;;0.70;0.50;;;14.80;71.40;;;;;;5001929;28;20089;-82
2024/02/04 11:55:39;;;;;;;1.20;0.40;;;14.80;71.10;;;;;;5001904;28;20146;-83
2024/02/04 11:58:09;;;;;;;1.48;0.70;;;14.80;70.90;;;;;;5001038;28;20100;-83
2024/02/04 12:00:34;;;;;;;1.55;0.80;;;14.80;70.50;;;;;;4996797;28;20046;-83
2024/02/04 12:03:09;;;;;;;1.15;0.85;;;14.80;70.70;;;;;;5017299;28;20096;-83
2024/02/04 12:05:35;;;;;;;1.10;0.60;;;14.80;70.50;;;;;;5001526;28;20042;-83
2024/02/04 12:08:05;;;;;;;0.82;0.77;;;14.90;70.60;;;;;;5002720;28;20455;-83
2024/02/04 12:10:31;;;;;;;1.92;0.80;;;14.80;70.70;;;;;;5003887;28;20053;-83
2024/02/04 12:13:02;;;;;;;0.88;0.80;;;14.80;70.60;;;;;;5001986;28;20069;-83
2024/02/04 12:15:27;;;;;;;0.63;0.63;;;14.80;71.00;;;;;;5004513;28;20507;-83
2024/02/04 12:17:53;;;;;;;0.98;0.63;;;14.80;70.50;;;;;;5018546;28;20057;-83
2024/02/04 12:20:19;;;;;;;0.80;0.80;;;14.80;70.60;;;;;;4988040;28;20736;-83
2024/02/04 12:22:44;;;;;;;1.08;0.50;;;14.90;70.70;;;;;;5024857;28;20073;-83
2024/02/04 12:25:10;;;;;;;1.17;0.60;;;14.80;71.20;;;;;;4981184;28;20038;-83
2024/02/04 12:27:36;;;;;;;0.50;0.45;;;14.80;70.60;;;;;;5021272;28;20479;-83
2024/02/04 12:30:01;;;;;;;1.27;0.85;;;14.80;70.50;;;;;;5017297;28;20030;-83
2024/02/04 12:32:28;;;;;;;1.15;0.50;;;14.80;70.50;;;;;;5014399;28;20034;-83
2024/02/04 12:34:56;;;;;;;1.45;0.70;;;14.80;70.70;;;;;;5006454;28;20507;-83
2024/02/04 12:37:21;;;;;;;0.98;0.55;;;14.80;70.50;;;;;;5001257;28;20053;-85
2024/02/04 12:39:47;;;;;;;1.17;0.55;;;14.80;70.60;;;;;;5004218;28;20061;-85
2024/02/04 12:42:18;;;;;;;1.20;0.50;;;14.90;70.60;;;;;;5003214;28;20137;-86